LFAC METAR and TAF | Updated Today

LFAC METAR

Calais-Dunkerque Airport

Observation time: 3:06 hr. ago

LFAC 032000Z AUTO 21007KT 9999 OVC008 08/07 Q1001

Need help? Read our tutorial on how to read METARs or read the parsed version below.

Calais-Dunkerque Airport (LFAC) METAR

  • Weather conditions on Fri, 03 Dec 2021 20:00:00 +0000 (3:06 hr. ago):
  • Present conditions: Dry
  • Clouds: Overcast sky at 244 meters
  • Visibility: Greater than 10 km
  • Wind: 210 degrees at 7 knots
  • Temperature: 8 celsius
  • Dew point: 7 celsius
  • Pressure: 1001 millibars
  • Remarks: None


Useful to know...

  • Codes: LFAC/CQF
  • Airport elevation: 12ft
  • Municipality: Calais/Dunkerque
  • Country: France
  • Continent: Europe